Time;durP1;ratioP1;P1;durP2;ratioP2;P2;SDS_P1;SDS_P2;PMS_P1;PMS_P2;Temp;Humidity;BMP_temperature;BMP_pressure;BME280_temperature;BME280_humidity;BME280_pressure;Samples;Min_cycle;Max_cycle;Signal;HPM_P1;HPM_P2
2021/04/14 00:00:17;;;;;;;6.70;1.92;;;3.00;99.90;;;;;;5052798;28;20267;-72
2021/04/14 00:02:44;;;;;;;1.27;0.73;;;3.00;99.90;;;;;;5052724;28;20513;-72
2021/04/14 00:05:13;;;;;;;0.90;0.73;;;3.00;99.90;;;;;;5052596;28;20184;-73
2021/04/14 00:07:40;;;;;;;1.45;0.88;;;2.90;99.90;;;;;;5052844;28;20794;-71
2021/04/14 00:10:08;;;;;;;1.30;1.20;;;2.90;99.90;;;;;;5052462;28;20234;-73
2021/04/14 00:12:35;;;;;;;1.77;1.23;;;2.90;99.90;;;;;;5052749;28;20204;-72
2021/04/14 00:15:08;;;;;;;4.18;1.13;;;2.90;99.90;;;;;;5053164;28;20177;-72
2021/04/14 00:17:35;;;;;;;4.65;1.75;;;2.90;99.90;;;;;;5072457;22;20236;-69
2021/04/14 00:20:04;;;;;;;1.08;0.95;;;2.90;99.90;;;;;;5072055;28;20214;-70
2021/04/14 00:22:31;;;;;;;1.90;1.40;;;2.90;99.90;;;;;;5072504;28;20187;-71
2021/04/14 00:24:58;;;;;;;1.45;1.20;;;2.80;99.90;;;;;;5054541;28;20191;-69
2021/04/14 00:27:25;;;;;;;2.45;0.70;;;2.80;99.90;;;;;;5072321;28;20200;-71
2021/04/14 00:29:53;;;;;;;1.42;1.23;;;2.70;99.90;;;;;;5072067;28;20176;-69
2021/04/14 00:32:21;;;;;;;1.40;0.70;;;2.70;99.90;;;;;;5072464;28;20228;-70
2021/04/14 00:34:48;;;;;;;2.58;1.30;;;2.60;99.90;;;;;;5054858;28;20230;-70
2021/04/14 00:37:15;;;;;;;1.05;0.80;;;2.50;99.90;;;;;;5073147;28;20207;-70
2021/04/14 00:39:42;;;;;;;1.33;1.13;;;2.50;99.90;;;;;;5073201;28;20188;-70
2021/04/14 00:42:10;;;;;;;3.05;1.50;;;2.50;99.90;;;;;;5072106;28;20356;-71
2021/04/14 00:44:37;;;;;;;1.23;1.05;;;2.40;99.90;;;;;;5071859;28;20258;-68
2021/04/14 00:47:04;;;;;;;3.75;1.52;;;2.40;99.90;;;;;;5071434;28;20252;-69
2021/04/14 00:49:32;;;;;;;3.25;1.05;;;2.40;99.90;;;;;;5053621;28;20245;-70
2021/04/14 00:52:00;;;;;;;6.53;2.20;;;2.40;99.90;;;;;;5071766;28;20200;-71
2021/04/14 00:54:27;;;;;;;2.38;1.15;;;2.40;99.90;;;;;;5072473;28;20648;-70
2021/04/14 00:56:54;;;;;;;0.90;0.75;;;2.40;99.90;;;;;;5071707;28;20246;-70
2021/04/14 00:59:21;;;;;;;4.10;1.20;;;2.40;99.90;;;;;;5071582;28;20192;-69
2021/04/14 01:01:48;;;;;;;5.32;1.20;;;2.30;99.90;;;;;;5071367;28;20697;-71
2021/04/14 01:04:15;;;;;;;7.35;1.38;;;2.30;99.90;;;;;;5053267;28;20609;-70
2021/04/14 01:06:44;;;;;;;4.10;1.17;;;2.30;99.90;;;;;;5071523;28;20282;-70
2021/04/14 01:09:12;;;;;;;7.45;1.83;;;2.30;99.90;;;;;;5053041;28;20771;-69
2021/04/14 01:11:40;;;;;;;11.02;2.08;;;2.20;99.90;;;;;;5071650;28;20736;-69
2021/04/14 01:14:08;;;;;;;2.20;1.00;;;2.20;99.90;;;;;;5071749;28;20185;-70
2021/04/14 01:16:35;;;;;;;5.07;1.63;;;2.10;99.90;;;;;;5071307;28;20222;-69
2021/04/14 01:19:03;;;;;;;4.93;0.80;;;2.10;99.90;;;;;;5071331;28;20211;-69
2021/04/14 01:21:37;;;;;;;1.40;1.30;;;2.00;99.90;;;;;;5050246;28;20246;-71
2021/04/14 01:24:06;;;;;;;6.50;1.80;;;2.00;99.90;;;;;;5051891;28;20205;-70
2021/04/14 01:26:33;;;;;;;2.83;1.20;;;1.90;99.90;;;;;;5059525;28;20172;-70
2021/04/14 01:29:01;;;;;;;4.60;1.27;;;1.90;99.90;;;;;;5059557;28;20535;-70
2021/04/14 01:31:34;;;;;;;2.20;1.17;;;1.90;99.90;;;;;;5071499;28;20547;-71
2021/04/14 01:34:03;;;;;;;8.80;1.67;;;1.90;99.90;;;;;;5054825;28;20180;-68
2021/04/14 01:36:30;;;;;;;8.27;2.00;;;1.80;99.90;;;;;;5070772;28;20191;-69
2021/04/14 01:38:59;;;;;;;1.85;1.67;;;1.80;99.90;;;;;;5053543;28;20571;-71
2021/04/14 01:41:26;;;;;;;3.28;1.75;;;1.80;99.90;;;;;;5071025;28;20540;-69
2021/04/14 01:43:53;;;;;;;15.40;2.20;;;1.70;99.90;;;;;;5070367;28;20185;-69
2021/04/14 01:46:21;;;;;;;3.65;2.05;;;1.70;99.90;;;;;;5070201;28;20534;-72
2021/04/14 01:48:48;;;;;;;2.58;0.90;;;1.70;99.90;;;;;;5071228;28;20204;-70
2021/04/14 01:51:15;;;;;;;2.17;0.95;;;1.70;99.90;;;;;;5074277;28;20195;-70
2021/04/14 01:53:42;;;;;;;4.90;2.03;;;1.70;99.90;;;;;;5068714;28;20184;-69
2021/04/14 01:56:10;;;;;;;7.60;1.50;;;1.70;99.90;;;;;;5057297;28;20272;-70
2021/04/14 01:58:37;;;;;;;2.38;1.20;;;1.60;99.90;;;;;;5074818;28;20229;-69
2021/04/14 02:01:07;;;;;;;2.08;1.23;;;1.70;99.90;;;;;;5056530;28;20191;-70
2021/04/14 02:03:38;;;;;;;3.53;1.40;;;1.60;99.90;;;;;;5074351;28;20609;-70
2021/04/14 02:06:06;;;;;;;5.30;1.60;;;1.60;99.90;;;;;;5074060;28;20195;-69
2021/04/14 02:08:33;;;;;;;7.57;1.60;;;1.60;99.90;;;;;;5073443;28;20702;-69
2021/04/14 02:11:01;;;;;;;2.55;1.10;;;1.50;99.90;;;;;;5074468;28;20670;-70
2021/04/14 02:13:30;;;;;;;1.50;1.35;;;1.50;99.90;;;;;;5055932;28;20250;-69
2021/04/14 02:15:58;;;;;;;1.35;0.98;;;1.50;99.90;;;;;;5073509;28;20191;-69
2021/04/14 02:18:26;;;;;;;4.05;0.93;;;1.50;99.90;;;;;;5073700;28;20581;-69
2021/04/14 02:20:53;;;;;;;5.35;1.13;;;1.50;99.90;;;;;;5075249;28;20188;-70
2021/04/14 02:23:24;;;;;;;6.72;1.15;;;1.40;99.90;;;;;;5075308;28;20180;-69
2021/04/14 02:25:54;;;;;;;3.17;0.95;;;1.40;99.90;;;;;;5075118;28;20200;-69
2021/04/14 02:28:22;;;;;;;11.02;1.70;;;1.40;99.90;;;;;;5057017;28;20212;-69
2021/04/14 02:30:50;;;;;;;2.92;1.25;;;1.40;99.90;;;;;;5073995;28;20214;-70
2021/04/14 02:33:18;;;;;;;1.42;1.20;;;1.30;99.90;;;;;;5074201;28;20587;-69
2021/04/14 02:35:45;;;;;;;2.65;1.20;;;1.40;99.90;;;;;;5073241;28;20192;-69
2021/04/14 02:38:13;;;;;;;5.88;1.23;;;1.30;99.90;;;;;;5073478;28;20227;-71
2021/04/14 02:40:40;;;;;;;1.65;0.98;;;1.30;99.90;;;;;;5073746;28;20172;-69
2021/04/14 02:43:07;;;;;;;8.32;2.55;;;1.30;99.90;;;;;;5073628;28;20191;-69
2021/04/14 02:45:37;;;;;;;1.20;0.85;;;1.20;99.90;;;;;;5055643;28;20199;-69
2021/04/14 02:48:08;;;;;;;14.30;2.30;;;1.30;99.90;;;;;;5060783;28;20246;-70
2021/04/14 02:50:35;;;;;;;3.17;1.70;;;1.30;99.90;;;;;;5073896;28;20172;-70
2021/04/14 02:53:03;;;;;;;4.55;1.95;;;1.20;99.90;;;;;;5073342;28;20735;-69
2021/04/14 02:55:32;;;;;;;3.38;1.65;;;1.20;99.90;;;;;;5073533;28;20584;-70
2021/04/14 02:57:59;;;;;;;1.52;1.42;;;1.20;99.90;;;;;;5055122;28;20623;-69
2021/04/14 03:00:28;;;;;;;1.30;1.20;;;1.20;99.90;;;;;;5072109;28;20549;-70
2021/04/14 03:02:56;;;;;;;3.88;1.85;;;1.10;99.90;;;;;;5049503;28;20263;-69
2021/04/14 03:05:28;;;;;;;2.55;0.70;;;1.10;99.90;;;;;;5073340;28;20180;-69
2021/04/14 03:07:55;;;;;;;1.30;1.13;;;1.10;99.90;;;;;;5073076;28;20303;-69
2021/04/14 03:10:24;;;;;;;1.30;1.17;;;1.10;99.90;;;;;;5057514;28;20231;-70
2021/04/14 03:12:51;;;;;;;2.20;1.17;;;1.00;99.90;;;;;;5049469;28;20281;-69
2021/04/14 03:15:22;;;;;;;1.20;1.02;;;1.00;99.90;;;;;;5052474;28;20212;-70
2021/04/14 03:17:49;;;;;;;2.97;1.67;;;1.00;99.90;;;;;;5072891;28;20223;-68
2021/04/14 03:20:17;;;;;;;3.15;1.50;;;1.00;99.90;;;;;;5072959;28;20216;-69
2021/04/14 03:22:45;;;;;;;2.33;2.13;;;0.90;99.90;;;;;;5072979;28;20181;-69
2021/04/14 03:25:14;;;;;;;2.45;2.30;;;0.90;99.90;;;;;;5073159;28;20637;-69
2021/04/14 03:27:41;;;;;;;1.60;1.27;;;0.90;99.90;;;;;;5072728;28;20315;-69
2021/04/14 03:30:10;;;;;;;6.68;1.75;;;0.90;99.90;;;;;;5072682;28;20593;-70
2021/04/14 03:32:37;;;;;;;5.55;1.63;;;0.80;99.90;;;;;;5072799;28;20235;-70
2021/04/14 03:35:06;;;;;;;2.45;1.58;;;0.80;99.90;;;;;;5072744;28;20191;-68
2021/04/14 03:37:33;;;;;;;5.13;1.40;;;0.80;99.90;;;;;;5072786;28;20571;-70
2021/04/14 03:40:02;;;;;;;4.25;1.70;;;0.80;99.90;;;;;;5072557;28;20673;-70
2021/04/14 03:42:29;;;;;;;11.35;1.23;;;0.70;99.90;;;;;;5054773;28;20192;-68
2021/04/14 03:44:58;;;;;;;1.55;0.90;;;0.80;99.90;;;;;;5072383;28;20180;-68
2021/04/14 03:47:25;;;;;;;11.65;2.13;;;0.80;99.90;;;;;;5054452;28;20222;-69
2021/04/14 03:49:52;;;;;;;3.88;1.77;;;0.70;99.90;;;;;;5070773;28;20241;-70
2021/04/14 03:52:21;;;;;;;4.82;1.38;;;0.80;99.90;;;;;;5072306;28;20199;-71
2021/04/14 03:54:49;;;;;;;3.83;1.02;;;0.70;99.90;;;;;;5054558;28;20192;-70
2021/04/14 03:57:17;;;;;;;2.47;1.50;;;0.70;99.90;;;;;;5072673;28;20215;-69
2021/04/14 03:59:44;;;;;;;15.82;1.70;;;0.70;99.90;;;;;;5072524;28;20176;-70
2021/04/14 04:02:11;;;;;;;3.42;1.50;;;0.70;99.90;;;;;;5076125;28;20198;-68
2021/04/14 04:04:38;;;;;;;4.10;1.42;;;0.80;99.90;;;;;;5059056;28;20230;-70
2021/04/14 04:07:05;;;;;;;2.35;1.55;;;0.70;99.90;;;;;;5081993;28;20212;-69
2021/04/14 04:09:32;;;;;;;5.28;1.40;;;0.80;99.90;;;;;;5077123;28;20185;-68
2021/04/14 04:12:01;;;;;;;3.90;2.05;;;0.80;99.90;;;;;;5077651;28;20203;-69
2021/04/14 04:14:32;;;;;;;1.60;1.50;;;0.70;99.90;;;;;;5078490;28;20696;-67
2021/04/14 04:17:00;;;;;;;9.82;1.80;;;0.80;99.90;;;;;;5071973;28;20274;-69
2021/04/14 04:19:28;;;;;;;1.80;0.90;;;0.80;99.90;;;;;;5062428;28;20579;-69
2021/04/14 04:21:55;;;;;;;4.10;1.63;;;0.80;99.90;;;;;;5074863;28;20269;-69
2021/04/14 04:24:22;;;;;;;1.65;1.08;;;0.80;99.90;;;;;;5076868;28;20180;-69
2021/04/14 04:26:50;;;;;;;3.38;2.28;;;0.70;99.90;;;;;;5081764;28;20219;-70
2021/04/14 04:29:17;;;;;;;3.83;2.75;;;0.70;99.90;;;;;;5084075;28;20728;-70
2021/04/14 04:31:48;;;;;;;3.70;1.83;;;0.80;99.90;;;;;;5062955;28;20184;-70
2021/04/14 04:34:18;;;;;;;3.38;1.40;;;0.80;99.90;;;;;;5062797;28;20188;-70
2021/04/14 04:36:46;;;;;;;3.10;1.45;;;0.80;99.90;;;;;;5047922;28;20305;-70
2021/04/14 04:39:13;;;;;;;1.30;0.93;;;0.80;99.90;;;;;;5067586;28;20678;-70
2021/04/14 04:41:40;;;;;;;1.38;1.13;;;0.80;99.90;;;;;;5071854;28;20183;-70
2021/04/14 04:44:07;;;;;;;2.92;1.00;;;0.90;99.90;;;;;;5072126;28;20176;-70
2021/04/14 04:46:34;;;;;;;3.95;1.45;;;0.90;99.90;;;;;;5050537;28;20193;-68
2021/04/14 04:49:03;;;;;;;6.88;2.00;;;1.00;99.90;;;;;;5051589;28;20195;-69
2021/04/14 04:51:31;;;;;;;4.20;2.40;;;1.20;99.90;;;;;;5033557;28;20603;-69
2021/04/14 04:53:58;;;;;;;4.28;1.17;;;1.40;99.90;;;;;;5051321;28;20197;-70
2021/04/14 04:56:25;;;;;;;4.45;1.80;;;1.60;99.90;;;;;;5051824;28;20177;-70
2021/04/14 04:58:53;;;;;;;5.05;1.80;;;1.90;99.90;;;;;;5033502;28;20216;-70
2021/04/14 05:01:20;;;;;;;4.40;2.25;;;2.40;99.90;;;;;;5052289;28;20189;-70
2021/04/14 05:03:50;;;;;;;2.03;1.50;;;2.90;99.90;;;;;;5052184;28;20183;-70
2021/04/14 05:06:19;;;;;;;1.63;1.50;;;3.30;99.90;;;;;;5051765;28;20260;-70
2021/04/14 05:08:46;;;;;;;5.07;1.70;;;3.90;99.90;;;;;;5051265;28;20212;-69
2021/04/14 05:11:13;;;;;;;2.53;1.52;;;4.00;99.90;;;;;;5051283;28;20192;-70
2021/04/14 05:13:40;;;;;;;3.95;1.90;;;3.60;99.90;;;;;;5033456;28;20248;-69
2021/04/14 05:16:08;;;;;;;5.22;2.50;;;3.00;99.90;;;;;;5033915;28;20189;-69
2021/04/14 05:18:35;;;;;;;2.92;1.75;;;2.60;99.90;;;;;;5051559;28;20219;-69
2021/04/14 05:21:03;;;;;;;6.68;2.15;;;2.40;99.90;;;;;;5033775;28;20642;-70
2021/04/14 05:23:31;;;;;;;5.60;1.40;;;2.20;99.90;;;;;;5052675;28;20747;-69
2021/04/14 05:25:58;;;;;;;2.78;2.13;;;2.10;99.90;;;;;;5056916;28;20559;-69
2021/04/14 05:28:27;;;;;;;2.85;2.00;;;2.00;99.90;;;;;;5056586;28;20209;-69
2021/04/14 05:30:56;;;;;;;2.85;1.27;;;2.00;99.90;;;;;;5056610;28;20177;-70
2021/04/14 05:33:25;;;;;;;3.60;1.13;;;2.00;99.90;;;;;;5054358;28;20204;-69
2021/04/14 05:35:53;;;;;;;7.57;1.85;;;2.00;99.90;;;;;;5055900;28;20275;-69
2021/04/14 05:38:20;;;;;;;2.95;2.25;;;1.90;99.90;;;;;;5038451;28;20212;-70
2021/04/14 05:40:48;;;;;;;3.58;1.60;;;1.80;99.90;;;;;;5055092;28;20169;-68
2021/04/14 05:43:20;;;;;;;2.17;1.23;;;1.80;99.90;;;;;;5054996;28;20169;-69
2021/04/14 05:45:53;;;;;;;2.95;1.73;;;2.00;99.90;;;;;;5036676;28;20192;-70
2021/04/14 05:48:21;;;;;;;7.10;2.22;;;2.10;99.90;;;;;;5036436;28;20220;-70
2021/04/14 05:50:48;;;;;;;1.90;1.77;;;2.10;99.90;;;;;;5054244;28;20324;-68
2021/04/14 05:53:16;;;;;;;3.00;2.13;;;2.20;99.90;;;;;;5054353;28;20215;-68
2021/04/14 05:55:43;;;;;;;4.20;2.38;;;2.20;99.90;;;;;;5054280;28;20660;-70
2021/04/14 05:58:11;;;;;;;3.85;2.75;;;2.30;99.90;;;;;;5054115;28;20479;-69
2021/04/14 06:00:39;;;;;;;8.25;1.80;;;2.50;99.90;;;;;;5054848;28;20539;-68
2021/04/14 06:03:06;;;;;;;1.92;1.55;;;2.50;99.90;;;;;;5037303;28;20189;-71
2021/04/14 06:05:34;;;;;;;6.57;3.00;;;2.50;99.90;;;;;;5053933;28;20246;-71
2021/04/14 06:08:03;;;;;;;4.30;2.42;;;2.40;99.90;;;;;;5036962;28;20224;-70
2021/04/14 06:10:30;;;;;;;8.68;3.75;;;2.30;99.90;;;;;;5036724;28;20196;-69
2021/04/14 06:12:57;;;;;;;5.60;3.13;;;2.40;99.90;;;;;;5053889;28;20192;-69
2021/04/14 06:15:28;;;;;;;1.98;1.88;;;2.80;99.90;;;;;;5054130;28;20686;-70
2021/04/14 06:17:56;;;;;;;5.68;2.13;;;2.70;99.90;;;;;;5071042;22;20231;-70
2021/04/14 06:20:25;;;;;;;6.45;2.75;;;2.70;99.90;;;;;;5058115;28;20170;-72
2021/04/14 06:22:53;;;;;;;2.35;2.13;;;2.70;99.90;;;;;;5057845;28;20173;-72
2021/04/14 06:25:22;;;;;;;15.82;3.00;;;2.80;99.90;;;;;;5056445;28;20181;-73
2021/04/14 06:27:55;;;;;;;2.03;1.88;;;2.80;99.90;;;;;;5039660;28;20216;-73
2021/04/14 06:30:23;;;;;;;5.88;2.50;;;2.80;99.90;;;;;;5036647;28;20594;-74
2021/04/14 06:32:52;;;;;;;3.15;1.70;;;2.90;99.90;;;;;;5035689;28;20209;-74
2021/04/14 06:35:21;;;;;;;8.43;3.58;;;3.10;99.90;;;;;;5035541;28;20189;-73
2021/04/14 06:37:49;;;;;;;4.40;3.60;;;3.10;99.90;;;;;;5035613;28;20209;-72
2021/04/14 06:40:49;;;;;;;8.75;4.00;;;3.20;99.90;;;;;;5035056;28;20189;-73
2021/04/14 06:43:33;;;;;;;5.20;2.30;;;3.30;99.90;;;;;;5036143;28;20638;-75
2021/04/14 06:46:06;;;;;;;2.65;2.35;;;3.40;99.90;;;;;;5035947;28;20216;-73
2021/04/14 06:48:42;;;;;;;2.15;2.00;;;3.40;99.90;;;;;;5035808;28;20202;-74
2021/04/14 06:51:17;;;;;;;2.72;1.60;;;3.40;99.90;;;;;;5036014;28;20189;-73
2021/04/14 06:53:57;;;;;;;3.15;2.75;;;3.40;99.90;;;;;;5035744;28;20205;-72
2021/04/14 06:56:25;;;;;;;7.97;3.03;;;3.50;99.90;;;;;;5017796;28;20228;-73
2021/04/14 06:59:04;;;;;;;7.10;2.60;;;3.70;99.90;;;;;;5015793;28;20213;-72
2021/04/14 07:01:39;;;;;;;7.78;1.73;;;3.80;99.90;;;;;;5034207;28;20650;-74
2021/04/14 07:04:11;;;;;;;2.95;1.23;;;3.90;99.90;;;;;;5016205;28;20666;-73
2021/04/14 07:06:41;;;;;;;5.95;1.95;;;4.00;99.90;;;;;;5033430;28;20189;-73
2021/04/14 07:09:23;;;;;;;7.38;2.08;;;4.00;99.90;;;;;;5015912;28;20201;-74
2021/04/14 07:11:53;;;;;;;12.93;3.50;;;4.00;99.90;;;;;;5033863;28;20653;-73
2021/04/14 07:14:21;;;;;;;4.28;3.25;;;4.00;99.90;;;;;;5033347;28;20581;-73
2021/04/14 07:17:04;;;;;;;2.53;2.33;;;4.00;99.90;;;;;;5032789;28;20196;-73
2021/04/14 07:19:53;;;;;;;4.70;2.30;;;4.30;99.90;;;;;;5033441;28;20169;-73
2021/04/14 07:22:31;;;;;;;9.15;3.30;;;4.50;99.90;;;;;;5033337;28;20193;-73
2021/04/14 07:25:04;;;;;;;3.55;2.10;;;4.50;99.90;;;;;;5015660;28;20255;-72
2021/04/14 07:27:42;;;;;;;6.85;3.35;;;4.40;99.90;;;;;;5033209;28;20205;-73
2021/04/14 07:30:15;;;;;;;2.67;1.58;;;4.40;99.90;;;;;;5033342;28;20184;-74
2021/04/14 07:32:56;;;;;;;4.00;1.70;;;4.40;99.90;;;;;;5033694;28;20201;-73
2021/04/14 07:35:28;;;;;;;6.10;1.85;;;4.40;99.90;;;;;;5015559;28;20217;-73
2021/04/14 07:38:02;;;;;;;3.92;2.60;;;4.70;99.90;;;;;;5033101;28;20308;-72
2021/04/14 07:40:38;;;;;;;14.93;2.72;;;5.00;99.90;;;;;;5033715;28;20173;-72
2021/04/14 07:43:15;;;;;;;7.68;1.77;;;5.00;99.90;;;;;;5033477;28;20177;-74
2021/04/14 07:45:42;;;;;;;5.00;2.17;;;5.10;99.90;;;;;;5033638;28;20253;-72
2021/04/14 07:48:14;;;;;;;3.53;1.77;;;5.30;99.90;;;;;;5031872;28;20581;-74
2021/04/14 07:50:44;;;;;;;5.50;1.70;;;5.30;99.90;;;;;;5055498;28;20195;-73
2021/04/14 07:53:17;;;;;;;4.82;1.63;;;5.30;99.90;;;;;;5073545;28;20695;-73
2021/04/14 07:55:45;;;;;;;3.53;2.55;;;5.30;99.90;;;;;;5072923;28;20177;-73
2021/04/14 07:58:17;;;;;;;6.60;1.85;;;5.50;99.90;;;;;;5073767;28;20199;-72
2021/04/14 08:00:46;;;;;;;5.35;2.25;;;5.60;99.90;;;;;;5055956;28;20195;-73
2021/04/14 08:03:18;;;;;;;7.95;3.38;;;5.90;99.90;;;;;;5072690;28;20183;-72
2021/04/14 08:05:46;;;;;;;3.85;1.83;;;6.20;99.90;;;;;;5055375;28;20273;-70
2021/04/14 08:08:17;;;;;;;12.00;2.40;;;6.50;99.90;;;;;;5071156;28;20575;-69
2021/04/14 08:10:55;;;;;;;6.60;2.08;;;6.40;99.90;;;;;;5072268;28;20274;-71
2021/04/14 08:13:27;;;;;;;2.17;1.98;;;6.30;99.90;;;;;;5072315;28;20227;-69
2021/04/14 08:15:55;;;;;;;5.38;1.35;;;6.50;99.90;;;;;;5072017;28;20237;-71
2021/04/14 08:18:27;;;;;;;3.28;1.40;;;6.80;99.90;;;;;;5071779;28;20252;-72
2021/04/14 08:21:12;;;;;;;5.18;1.75;;;6.90;99.90;;;;;;5071922;28;20255;-70
2021/04/14 08:23:53;;;;;;;13.50;2.92;;;6.90;99.90;;;;;;5071799;28;20168;-71
2021/04/14 08:26:21;;;;;;;2.20;1.63;;;6.80;99.90;;;;;;5054443;28;20190;-72
2021/04/14 08:28:51;;;;;;;5.50;1.75;;;7.00;99.90;;;;;;5054859;28;20204;-73
2021/04/14 08:31:23;;;;;;;3.55;1.70;;;6.90;99.90;;;;;;5072868;28;20267;-73
2021/04/14 08:33:53;;;;;;;4.38;1.85;;;7.10;99.90;;;;;;5070779;28;20636;-71
2021/04/14 08:36:30;;;;;;;3.95;1.95;;;7.10;99.90;;;;;;5054658;28;20188;-72
2021/04/14 08:39:08;;;;;;;5.47;1.40;;;7.00;99.90;;;;;;5070552;28;20195;-73
2021/04/14 08:41:36;;;;;;;5.95;1.88;;;6.90;99.90;;;;;;5072330;28;20203;-71
2021/04/14 08:44:10;;;;;;;4.55;1.83;;;6.80;99.90;;;;;;5074963;28;20184;-72
2021/04/14 08:46:40;;;;;;;6.57;2.55;;;6.80;99.90;;;;;;5055239;28;20218;-71
2021/04/14 08:49:14;;;;;;;8.23;2.80;;;6.80;99.90;;;;;;5071932;28;20215;-72
2021/04/14 08:51:46;;;;;;;4.20;2.08;;;7.10;99.90;;;;;;5072220;28;20302;-72
2021/04/14 08:54:15;;;;;;;17.67;10.95;;;7.50;99.90;;;;;;5071921;28;20271;-72
2021/04/14 08:56:42;;;;;;;7.88;1.90;;;7.30;99.90;;;;;;5071579;28;20184;-71
2021/04/14 08:59:12;;;;;;;9.10;5.28;;;6.90;99.90;;;;;;5073299;28;20226;-73
2021/04/14 09:01:40;;;;;;;4.72;2.55;;;6.60;99.90;;;;;;5076428;28;20176;-72
2021/04/14 09:04:10;;;;;;;6.55;2.50;;;6.90;99.90;;;;;;5075984;28;20206;-73
2021/04/14 09:06:39;;;;;;;3.88;1.50;;;7.30;99.90;;;;;;5075888;28;20188;-73
2021/04/14 09:09:15;;;;;;;5.57;1.67;;;7.40;99.90;;;;;;5075901;28;20556;-71
2021/04/14 09:11:43;;;;;;;5.68;1.95;;;7.30;99.90;;;;;;5077544;28;20210;-73
2021/04/14 09:14:21;;;;;;;4.85;1.55;;;7.10;99.90;;;;;;5076922;28;20218;-70
2021/04/14 09:16:51;;;;;;;7.38;1.20;;;7.20;99.90;;;;;;5077307;28;20180;-75
2021/04/14 09:19:27;;;;;;;2.67;1.83;;;7.30;99.90;;;;;;5077609;28;20267;-71
2021/04/14 09:21:57;;;;;;;8.27;3.90;;;7.60;99.90;;;;;;5076243;28;20178;-72
2021/04/14 09:24:44;;;;;;;1.45;1.33;;;7.70;99.90;;;;;;5076403;28;20330;-74
2021/04/14 09:27:32;;;;;;;4.30;1.60;;;7.50;99.90;;;;;;5075813;28;20199;-72
2021/04/14 09:30:27;;;;;;;3.53;2.33;;;7.30;99.90;;;;;;5056444;28;20715;-72
2021/04/14 09:33:00;;;;;;;1.95;1.52;;;7.20;99.90;;;;;;5056597;28;20223;-71
2021/04/14 09:35:59;;;;;;;4.30;2.65;;;7.30;99.90;;;;;;5064934;28;20184;-73
2021/04/14 09:38:33;;;;;;;10.38;2.95;;;7.30;99.90;;;;;;5064842;28;20227;-72
2021/04/14 09:41:36;;;;;;;7.40;1.83;;;7.50;99.90;;;;;;5059641;28;20218;-73
2021/04/14 09:44:16;;;;;;;3.15;2.80;;;7.30;99.90;;;;;;5055717;28;20234;-72
2021/04/14 09:47:33;;;;;;;2.00;1.02;;;7.20;99.90;;;;;;5038427;28;20579;-72
2021/04/14 09:50:16;;;;;;;10.52;8.20;;;6.80;99.90;;;;;;5075201;28;20184;-72
2021/04/14 09:52:53;;;;;;;4.10;3.78;;;6.80;99.90;;;;;;5068556;28;20204;-73
2021/04/14 09:55:46;;;;;;;3.05;1.27;;;6.90;99.90;;;;;;5049109;28;20191;-73
2021/04/14 09:58:21;;;;;;;7.65;4.22;;;7.20;99.90;;;;;;5036503;28;20220;-73
2021/04/14 10:00:52;;;;;;;4.72;2.53;;;7.60;99.90;;;;;;5055227;28;20540;-73
2021/04/14 10:03:25;;;;;;;3.45;1.60;;;8.00;99.90;;;;;;5054960;28;20176;-72
2021/04/14 10:05:54;;;;;;;3.08;2.22;;;8.30;99.90;;;;;;5036335;28;20193;-73
2021/04/14 10:08:22;;;;;;;4.50;2.45;;;8.10;99.90;;;;;;5036313;28;20208;-73
2021/04/14 10:10:50;;;;;;;1.52;0.98;;;7.90;99.90;;;;;;5053855;28;20173;-71
2021/04/14 10:13:20;;;;;;;2.42;1.15;;;7.80;99.90;;;;;;5054529;28;20239;-73
2021/04/14 10:15:49;;;;;;;1.58;1.00;;;7.70;99.90;;;;;;5054905;28;20279;-74
2021/04/14 10:18:22;;;;;;;2.97;1.13;;;7.70;99.90;;;;;;5054039;28;20208;-71
2021/04/14 10:20:50;;;;;;;1.75;1.42;;;7.60;99.90;;;;;;5055024;28;20220;-73
2021/04/14 10:23:19;;;;;;;7.32;2.00;;;7.50;99.90;;;;;;5054393;28;20626;-72
2021/04/14 10:25:47;;;;;;;3.75;1.70;;;7.50;99.90;;;;;;5056677;28;20193;-71
2021/04/14 10:28:21;;;;;;;2.50;1.70;;;7.60;99.90;;;;;;5054999;28;20243;-71
2021/04/14 10:30:51;;;;;;;5.70;1.38;;;8.30;99.90;;;;;;5052900;28;20192;-71
2021/04/14 10:33:22;;;;;;;1.20;0.80;;;8.80;99.90;;;;;;5054138;28;20207;-73
2021/04/14 10:35:51;;;;;;;1.85;0.80;;;8.90;99.90;;;;;;5054748;28;20199;-72
2021/04/14 10:38:27;;;;;;;1.08;0.85;;;8.60;99.90;;;;;;5054813;28;20217;-68
2021/04/14 10:40:55;;;;;;;2.92;1.58;;;8.40;99.90;;;;;;5037236;28;20220;-71
2021/04/14 10:43:26;;;;;;;1.88;1.25;;;8.40;99.90;;;;;;5054287;28;20169;-71
2021/04/14 10:45:59;;;;;;;1.90;1.02;;;8.40;99.90;;;;;;5053710;28;20264;-72
2021/04/14 10:48:27;;;;;;;3.08;1.20;;;8.20;99.90;;;;;;5053256;28;20212;-73
2021/04/14 10:51:06;;;;;;;4.40;1.00;;;8.30;99.90;;;;;;5053205;28;20192;-73
2021/04/14 10:53:40;;;;;;;5.30;1.10;;;8.20;99.90;;;;;;5053186;28;20632;-71
2021/04/14 10:56:14;;;;;;;2.85;1.80;;;8.00;99.90;;;;;;5052809;28;20247;-72
2021/04/14 10:58:43;;;;;;;1.38;1.15;;;8.20;99.90;;;;;;5053487;28;20217;-70
2021/04/14 11:01:13;;;;;;;7.25;1.65;;;8.40;99.90;;;;;;5054352;28;20260;-73
2021/04/14 11:04:02;;;;;;;1.90;1.35;;;8.30;99.90;;;;;;5055980;28;20654;-72
2021/04/14 11:06:31;;;;;;;1.35;0.80;;;8.40;99.90;;;;;;5055498;28;20610;-72
2021/04/14 11:08:58;;;;;;;1.10;0.82;;;8.30;99.90;;;;;;5064007;28;20192;-72
2021/04/14 11:11:25;;;;;;;1.50;1.10;;;8.70;99.90;;;;;;5076329;28;20215;-72
2021/04/14 11:13:55;;;;;;;2.95;2.17;;;9.10;99.90;;;;;;5075992;28;20228;-73
2021/04/14 11:16:22;;;;;;;2.10;1.40;;;9.40;99.90;;;;;;5075609;28;20267;-73
2021/04/14 11:18:49;;;;;;;1.10;0.90;;;9.60;99.90;;;;;;5077549;28;20704;-72
2021/04/14 11:21:27;;;;;;;2.20;1.55;;;9.80;99.90;;;;;;5076432;28;20184;-73
2021/04/14 11:24:06;;;;;;;2.25;1.27;;;10.10;99.90;;;;;;5076453;28;20238;-73
2021/04/14 11:26:37;;;;;;;1.20;0.85;;;10.30;99.90;;;;;;5074281;28;20231;-71
2021/04/14 11:29:07;;;;;;;5.47;2.13;;;10.60;99.90;;;;;;5073370;28;20226;-73
2021/04/14 11:31:38;;;;;;;1.25;0.68;;;10.70;99.90;;;;;;5055363;28;20192;-73
2021/04/14 11:34:15;;;;;;;2.20;0.88;;;10.50;99.90;;;;;;5073209;28;20611;-71
2021/04/14 11:36:56;;;;;;;3.00;1.00;;;10.30;99.90;;;;;;5073167;28;20599;-73
2021/04/14 11:39:23;;;;;;;1.20;0.90;;;9.70;99.90;;;;;;5072960;28;20597;-72
2021/04/14 11:42:10;;;;;;;2.65;1.45;;;9.60;99.90;;;;;;5072607;28;20279;-72
2021/04/14 11:44:42;;;;;;;1.15;0.68;;;9.50;99.90;;;;;;5073338;28;20190;-72
2021/04/14 11:47:24;;;;;;;2.65;0.93;;;9.20;99.90;;;;;;5073356;28;20696;-72
2021/04/14 11:49:57;;;;;;;3.13;2.75;;;9.10;99.90;;;;;;5073361;28;20199;-72
2021/04/14 11:52:32;;;;;;;7.20;2.70;;;8.80;99.90;;;;;;5073950;28;20648;-72
2021/04/14 11:55:11;;;;;;;2.60;2.03;;;8.60;99.90;;;;;;5073840;28;20303;-72
2021/04/14 11:57:42;;;;;;;2.90;1.55;;;8.60;99.90;;;;;;5073509;28;20570;-73
2021/04/14 12:00:27;;;;;;;3.88;1.40;;;8.50;99.90;;;;;;5072954;28;20267;-74
2021/04/14 12:02:59;;;;;;;2.45;1.20;;;8.40;99.90;;;;;;5056358;28;20249;-72
2021/04/14 12:05:27;;;;;;;5.00;2.55;;;8.40;99.90;;;;;;5073425;28;20671;-73
2021/04/14 12:07:54;;;;;;;2.55;1.65;;;8.40;99.90;;;;;;5074171;28;20208;-73
2021/04/14 12:10:21;;;;;;;2.45;1.30;;;8.40;99.90;;;;;;5073970;28;20184;-72
2021/04/14 12:12:48;;;;;;;13.77;2.20;;;8.50;99.90;;;;;;5074306;28;20196;-71
2021/04/14 12:15:17;;;;;;;5.57;1.92;;;8.40;99.90;;;;;;5074797;28;20212;-72
2021/04/14 12:17:46;;;;;;;6.88;2.88;;;8.30;99.90;;;;;;5105655;22;20596;-72
2021/04/14 12:20:14;;;;;;;13.20;7.63;;;8.20;99.90;;;;;;5061253;28;20192;-71
2021/04/14 12:22:42;;;;;;;5.07;3.72;;;8.10;99.90;;;;;;5061780;28;20187;-70
2021/04/14 12:25:11;;;;;;;2.75;1.65;;;7.90;99.90;;;;;;5052061;28;20180;-71
2021/04/14 12:27:39;;;;;;;4.13;1.00;;;7.50;99.90;;;;;;5069523;28;20216;-71
2021/04/14 12:30:08;;;;;;;3.40;1.95;;;7.10;99.90;;;;;;5070492;28;20177;-70
2021/04/14 12:32:49;;;;;;;1.33;0.90;;;6.80;99.90;;;;;;5049484;28;20191;-72
2021/04/14 12:35:17;;;;;;;3.20;2.15;;;6.60;99.90;;;;;;5058117;28;20220;-70
2021/04/14 12:37:45;;;;;;;7.60;3.15;;;6.70;99.90;;;;;;5053944;28;20209;-72
2021/04/14 12:40:19;;;;;;;1.98;1.42;;;6.80;99.90;;;;;;5061705;28;20245;-73
2021/04/14 12:43:02;;;;;;;3.67;1.50;;;7.10;99.90;;;;;;5042523;28;20184;-70
2021/04/14 12:45:36;;;;;;;2.55;2.03;;;7.60;99.90;;;;;;5055907;28;20556;-71
2021/04/14 12:48:08;;;;;;;7.85;2.05;;;8.20;99.90;;;;;;5051951;28;20214;-71
2021/04/14 12:51:14;;;;;;;9.82;1.13;;;8.50;99.90;;;;;;5052220;28;20189;-71
2021/04/14 12:53:45;;;;;;;2.92;1.60;;;8.90;99.90;;;;;;5051987;28;20235;-72
2021/04/14 12:56:21;;;;;;;2.70;1.10;;;9.20;99.90;;;;;;5051863;28;20183;-72
2021/04/14 12:58:51;;;;;;;7.72;4.28;;;9.30;99.90;;;;;;5052111;28;20200;-72
2021/04/14 13:01:20;;;;;;;11.75;3.88;;;9.40;99.90;;;;;;5033864;28;20204;-72
2021/04/14 13:03:51;;;;;;;8.43;2.08;;;9.40;99.90;;;;;;5051535;28;20173;-72
2021/04/14 13:06:31;;;;;;;2.45;1.60;;;9.50;99.90;;;;;;5051672;28;20188;-71
2021/04/14 13:09:05;;;;;;;6.13;3.65;;;9.40;99.90;;;;;;5051424;28;20173;-72
2021/04/14 13:11:36;;;;;;;2.75;1.13;;;9.40;99.90;;;;;;5051426;28;20184;-71
2021/04/14 13:14:03;;;;;;;7.40;2.90;;;9.20;99.90;;;;;;5033788;28;20209;-71